Aviation Digital Data Service (ADDS)

Output produced by METARs form (0937 UTC 18 September 2014)
found at http://aviationweather.gov/adds/metars/
 
KPOU 180538Z 1806/1906 VRB03KT 6SM BR SKC 
     FM181300 32004KT P6SM SCT080 
     FM181600 33006KT P6SM BKN080 
     FM190000 02008KT P6SM BKN050